Time,TemperatureF,DewpointF,PressureIn,WindDirection,WindDirectionDegrees,WindSpeedMPH,WindSpeedGustMPH,Humidity,HourlyPrecipIn,Conditions,Clouds,dailyrainin,SoftwareType,DateUTC
2015-04-19 00:11:00,66.7,63.7,29.79,ESE,112,1.1,-999.0,90,-99.99,,,0.00,Acu-Link.com,2015-04-19 05:11:00,
2015-04-19 00:26:00,66.2,63.5,29.78,ESE,112,1.7,-999.0,91,-99.99,,,0.00,Acu-Link.com,2015-04-19 05:26:00,
2015-04-19 00:41:00,65.8,63.4,29.78,East,90,2.7,-999.0,92,-99.99,,,0.00,Acu-Link.com,2015-04-19 05:41:00,
2015-04-19 00:56:00,65.7,63.6,29.78,ESE,112,0.0,-999.0,93,-99.99,,,0.00,Acu-Link.com,2015-04-19 05:56:00,
2015-04-19 01:12:00,65.5,63.7,29.77,ESE,112,1.7,-999.0,94,-99.99,,,0.00,Acu-Link.com,2015-04-19 06:12:00,
2015-04-19 01:27:00,65.3,63.5,29.77,ESE,112,1.7,-999.0,94,-99.99,,,0.00,Acu-Link.com,2015-04-19 06:27:00,
2015-04-19 01:42:00,65.1,63.3,29.76,ESE,112,1.7,-999.0,94,-99.99,,,0.00,Acu-Link.com,2015-04-19 06:42:00,
2015-04-19 01:57:00,65.1,63.3,29.76,East,90,1.1,-999.0,94,-99.99,,,0.00,Acu-Link.com,2015-04-19 06:57:00,
2015-04-19 02:12:00,64.9,63.1,29.75,East,90,0.0,-999.0,94,-99.99,,,0.00,Acu-Link.com,2015-04-19 07:12:00,
2015-04-19 02:27:00,64.9,63.1,29.73,East,90,0.0,-999.0,94,-99.99,,,0.00,Acu-Link.com,2015-04-19 07:27:00,
2015-04-19 02:43:00,64.9,63.1,29.73,ENE,67,0.0,-999.0,94,-99.99,,,0.00,Acu-Link.com,2015-04-19 07:43:00,
2015-04-19 02:58:00,64.9,63.1,29.73,East,90,0.0,-999.0,94,-99.99,,,0.00,Acu-Link.com,2015-04-19 07:58:00,
2015-04-19 03:13:00,64.8,63.3,29.72,SE,135,0.0,-999.0,95,-99.99,,,0.00,Acu-Link.com,2015-04-19 08:13:00,
2015-04-19 03:28:00,64.8,63.3,29.71,ESE,112,1.7,-999.0,95,-99.99,,,0.00,Acu-Link.com,2015-04-19 08:28:00,
2015-04-19 03:44:00,64.8,63.3,29.71,SE,135,1.7,-999.0,95,-99.99,,,0.00,Acu-Link.com,2015-04-19 08:44:00,
2015-04-19 03:59:00,64.8,63.3,29.71,ESE,112,0.0,-999.0,95,-99.99,,,0.00,Acu-Link.com,2015-04-19 08:59:00,
2015-04-19 04:14:00,64.6,63.1,29.71,East,90,0.0,-999.0,95,-99.99,,,0.01,Acu-Link.com,2015-04-19 09:14:00,
2015-04-19 04:30:00,64.6,63.4,29.70,ESE,112,0.0,-999.0,96,-99.99,,,0.02,Acu-Link.com,2015-04-19 09:30:00,
2015-04-19 04:45:00,64.4,63.2,29.69,ESE,112,1.7,-999.0,96,-99.99,,,0.02,Acu-Link.com,2015-04-19 09:45:00,
2015-04-19 05:00:00,64.4,63.5,29.69,ESE,112,1.1,-999.0,97,-99.99,,,0.03,Acu-Link.com,2015-04-19 10:00:00,
2015-04-19 05:16:00,64.2,63.3,29.68,East,90,0.0,-999.0,97,-99.99,,,0.04,Acu-Link.com,2015-04-19 10:16:00,
2015-04-19 05:31:00,64.2,63.6,29.68,East,90,1.7,-999.0,98,-99.99,,,0.11,Acu-Link.com,2015-04-19 10:31:00,
2015-04-19 05:46:00,64.0,63.4,29.68,SE,135,1.1,-999.0,98,-99.99,,,0.13,Acu-Link.com,2015-04-19 10:46:00,
2015-04-19 06:01:00,64.0,63.4,29.67,ESE,112,0.0,-999.0,98,-99.99,,,0.15,Acu-Link.com,2015-04-19 11:01:00,
2015-04-19 06:17:00,64.0,63.4,29.67,East,90,0.0,-999.0,98,-99.99,,,0.18,Acu-Link.com,2015-04-19 11:17:00,
2015-04-19 06:32:00,64.0,63.4,29.67,East,90,1.1,-999.0,98,-99.99,,,0.18,Acu-Link.com,2015-04-19 11:32:00,
2015-04-19 06:47:00,64.0,63.7,29.67,South,180,1.1,-999.0,99,-99.99,,,0.19,Acu-Link.com,2015-04-19 11:47:00,
2015-04-19 07:02:00,64.0,63.7,29.67,SE,135,2.2,-999.0,99,-99.99,,,0.19,Acu-Link.com,2015-04-19 12:02:00,
2015-04-19 07:18:00,64.0,63.7,29.67,East,90,1.1,-999.0,99,-99.99,,,0.19,Acu-Link.com,2015-04-19 12:18:00,
2015-04-19 07:33:00,64.2,63.9,29.67,NNE,22,0.0,-999.0,99,-99.99,,,0.19,Acu-Link.com,2015-04-19 12:33:00,
2015-04-19 07:48:00,64.4,64.1,29.66,NE,45,0.0,-999.0,99,-99.99,,,0.19,Acu-Link.com,2015-04-19 12:48:00,
2015-04-19 08:04:00,64.4,64.1,29.66,East,90,0.0,-999.0,99,-99.99,,,0.19,Acu-Link.com,2015-04-19 13:04:00,
2015-04-19 08:19:00,64.6,64.3,29.65,East,90,0.0,-999.0,99,-99.99,,,0.19,Acu-Link.com,2015-04-19 13:19:00,
2015-04-19 08:34:00,65.3,65.0,29.65,WNW,292,0.0,-999.0,99,-99.99,,,0.20,Acu-Link.com,2015-04-19 13:34:00,
2015-04-19 08:49:00,66.2,65.6,29.64,ENE,67,0.0,-999.0,98,-99.99,,,0.20,Acu-Link.com,2015-04-19 13:49:00,
2015-04-19 09:04:00,65.8,65.2,29.63,NNE,22,1.1,-999.0,98,-99.99,,,0.21,Acu-Link.com,2015-04-19 14:04:00,
2015-04-19 09:20:00,66.4,65.5,29.62,WNW,292,0.0,-999.0,97,-99.99,,,0.22,Acu-Link.com,2015-04-19 14:20:00,
2015-04-19 09:35:00,67.3,66.4,29.62,ENE,67,0.0,-999.0,97,-99.99,,,0.22,Acu-Link.com,2015-04-19 14:35:00,
2015-04-19 09:50:00,68.4,66.6,29.61,West,270,1.7,-999.0,94,-99.99,,,0.22,Acu-Link.com,2015-04-19 14:50:00,
2015-04-19 10:05:00,68.7,66.0,29.61,West,270,2.2,-999.0,91,-99.99,,,0.22,Acu-Link.com,2015-04-19 15:05:00,
2015-04-19 10:20:00,69.6,67.2,29.61,West,270,2.2,-999.0,92,-99.99,,,0.22,Acu-Link.com,2015-04-19 15:20:00,
2015-04-19 10:36:00,70.0,65.9,29.62,WNW,292,2.2,-999.0,87,-99.99,,,0.22,Acu-Link.com,2015-04-19 15:36:00,
2015-04-19 10:51:00,71.8,66.7,29.62,South,180,1.7,-999.0,84,-99.99,,,0.22,Acu-Link.com,2015-04-19 15:51:00,
2015-04-19 11:06:00,70.5,65.4,29.62,SW,225,2.2,-999.0,84,-99.99,,,0.22,Acu-Link.com,2015-04-19 16:06:00,
2015-04-19 11:21:00,70.5,65.1,29.62,ESE,112,1.7,-999.0,83,-99.99,,,0.22,Acu-Link.com,2015-04-19 16:21:00,
2015-04-19 11:36:00,70.9,65.5,29.62,East,90,2.7,-999.0,83,-99.99,,,0.22,Acu-Link.com,2015-04-19 16:36:00,
2015-04-19 11:52:00,70.3,65.2,29.62,West,270,6.3,-999.0,84,-99.99,,,0.22,Acu-Link.com,2015-04-19 16:52:00,
2015-04-19 12:07:00,69.8,66.1,29.61,West,270,3.7,-999.0,88,-99.99,,,0.22,Acu-Link.com,2015-04-19 17:07:00,
2015-04-19 12:26:00,71.8,66.0,29.61,WNW,292,4.2,-999.0,82,-99.99,,,0.22,Acu-Link.com,2015-04-19 17:26:00,
2015-04-19 12:42:00,71.2,64.3,29.61,NE,45,3.2,-999.0,79,-99.99,,,0.22,Acu-Link.com,2015-04-19 17:42:00,
2015-04-19 12:57:00,71.8,65.6,29.62,West,270,4.7,-999.0,81,-99.99,,,0.22,Acu-Link.com,2015-04-19 17:57:00,
2015-04-19 13:12:00,71.6,64.7,29.62,SW,225,2.2,-999.0,79,-99.99,,,0.22,Acu-Link.com,2015-04-19 18:12:00,
2015-04-19 13:27:00,72.0,64.8,29.60,South,180,2.7,-999.0,78,-99.99,,,0.22,Acu-Link.com,2015-04-19 18:27:00,
2015-04-19 13:42:00,73.4,64.6,29.60,NW,315,1.1,-999.0,74,-99.99,,,0.22,Acu-Link.com,2015-04-19 18:42:00,
2015-04-19 13:58:00,73.0,64.6,29.60,North,0,1.7,-999.0,75,-99.99,,,0.22,Acu-Link.com,2015-04-19 18:58:00,
2015-04-19 14:13:00,72.7,64.7,29.59,NW,315,2.7,-999.0,76,-99.99,,,0.22,Acu-Link.com,2015-04-19 19:13:00,
2015-04-19 14:28:00,69.3,64.6,29.60,NNW,337,2.7,-999.0,85,-99.99,,,0.23,Acu-Link.com,2015-04-19 19:28:00,
2015-04-19 14:44:00,68.4,65.0,29.60,NNE,22,2.2,-999.0,89,-99.99,,,0.25,Acu-Link.com,2015-04-19 19:44:00,
2015-04-19 14:59:00,71.2,66.1,29.59,NNW,337,4.7,-999.0,84,-99.99,,,0.25,Acu-Link.com,2015-04-19 19:59:00,
2015-04-19 15:14:00,71.6,65.1,29.58,WNW,292,2.2,-999.0,80,-99.99,,,0.25,Acu-Link.com,2015-04-19 20:14:00,
2015-04-19 15:29:00,72.7,65.4,29.58,NNE,22,2.7,-999.0,78,-99.99,,,0.25,Acu-Link.com,2015-04-19 20:29:00,
2015-04-19 15:44:00,72.1,64.5,29.58,NNW,337,4.2,-999.0,77,-99.99,,,0.25,Acu-Link.com,2015-04-19 20:44:00,
2015-04-19 16:00:00,74.8,65.6,29.57,SSW,202,3.7,-999.0,73,-99.99,,,0.25,Acu-Link.com,2015-04-19 21:00:00,
2015-04-19 16:15:00,74.1,64.9,29.57,West,270,6.8,-999.0,73,-99.99,,,0.25,Acu-Link.com,2015-04-19 21:15:00,
2015-04-19 16:30:00,74.3,65.5,29.57,West,270,5.8,-999.0,74,-99.99,,,0.25,Acu-Link.com,2015-04-19 21:30:00,
2015-04-19 16:48:00,74.3,64.7,29.57,WNW,292,4.7,-999.0,72,-99.99,,,0.25,Acu-Link.com,2015-04-19 21:48:00,
2015-04-19 17:03:00,74.3,64.7,29.58,ENE,67,2.7,-999.0,72,-99.99,,,0.25,Acu-Link.com,2015-04-19 22:03:00,
2015-04-19 17:18:00,74.3,64.3,29.58,South,180,3.2,-999.0,71,-99.99,,,0.25,Acu-Link.com,2015-04-19 22:18:00,
2015-04-19 17:34:00,73.6,64.0,29.59,SSW,202,2.7,-999.0,72,-99.99,,,0.25,Acu-Link.com,2015-04-19 22:34:00,
2015-04-19 17:49:00,73.6,64.0,29.58,West,270,3.7,-999.0,72,-99.99,,,0.25,Acu-Link.com,2015-04-19 22:49:00,
2015-04-19 18:04:00,73.8,64.2,29.58,West,270,1.1,-999.0,72,-99.99,,,0.25,Acu-Link.com,2015-04-19 23:04:00,
2015-04-19 18:19:00,73.4,63.8,29.59,WSW,247,2.7,-999.0,72,-99.99,,,0.25,Acu-Link.com,2015-04-19 23:19:00,
2015-04-19 18:34:00,73.2,63.6,29.59,WSW,247,3.2,-999.0,72,-99.99,,,0.25,Acu-Link.com,2015-04-19 23:34:00,
2015-04-19 18:49:00,72.7,63.5,29.58,West,270,1.7,-999.0,73,-99.99,,,0.25,Acu-Link.com,2015-04-19 23:49:00,
2015-04-19 19:04:00,72.1,63.0,29.59,ENE,67,0.0,-999.0,73,-99.99,,,0.25,Acu-Link.com,2015-04-20 00:04:00,
2015-04-19 19:20:00,71.2,62.5,29.59,West,270,0.0,-999.0,74,-99.99,,,0.25,Acu-Link.com,2015-04-20 00:20:00,
2015-04-19 19:35:00,70.0,62.1,29.58,WNW,292,0.0,-999.0,76,-99.99,,,0.25,Acu-Link.com,2015-04-20 00:35:00,
2015-04-19 19:52:00,68.7,61.6,29.58,NE,45,0.0,-999.0,78,-99.99,,,0.25,Acu-Link.com,2015-04-20 00:52:00,
2015-04-19 20:07:00,67.3,60.9,29.58,ENE,67,0.0,-999.0,80,-99.99,,,0.25,Acu-Link.com,2015-04-20 01:07:00,
2015-04-19 20:22:00,66.2,60.2,29.57,NW,315,0.0,-999.0,81,-99.99,,,0.25,Acu-Link.com,2015-04-20 01:22:00,